Advies zoeken

Is mijn (concept)aanvraag al behandeld?

Voor vergunningplichtige bouwactiviteiten is een welstandsadvies verplicht. Het welstandsadvies moet gebaseerd zijn op de door de gemeenteraad vastgestelde welstandsnota. Een welstandsadvies wordt schriftelijk uitgebracht en is gericht aan het dagelijks bestuur van een stadsdeel of, als het om plannen van de centrale stad gaat, aan B en W. Zij nemen vervolgens een besluit over het al dan niet verlenen van een omgevingsvergunning. Het advies van de commissie is niet bindend, maar in de regel nemen de dagelijkse besturen en B en W het oordeel van de commissie over. De stadsdelen of, als het om plannen van de centrale stad gaat, de Omgevingsdienst Noordzeekanaalgebied (NZKG), lichten aanvragers schriftelijk in over de welstandsadviezen.

Hieronder kunt u de welstands- en monumentenadviezen van alle aanvragen bekijken. U kunt het advies opzoeken onder meerdere kenmerken of voor hulp contact opnemen met de commissiesecretaris van de betreffende commissie. Klik hier voor de contactgegevens van de secretarissen.

U kunt zoeken op adres, OLO-nummer, aanvraagnummer en datum.

Deelzaaknummer Aanvraagnummer Adres of locatie Commissie Datum
CWM-2018-000757-002 OLO 3371025 CAN Noorderkwartier Zuidpunt CWM Commissie III B 2018-05-16
WABO-2018-004544-008 OLO 3616643 Bredeweg 18 1098BR Amsterdam Commissie II 2018-05-16
WABO-2018-004544-009 OLO 3616643 Bredeweg 18 1098BR Amsterdam Commissie II 2018-05-16
CWM-2018-005387-001 OLO 3576935 Buiksloterham kavel 15A Cityplots CWM Commissie III B 2018-05-16
WABO-2018-005022-002 OLO 3637755 Pieter Vlamingstraat 159 1093DL Amsterdam Commissie II 2018-05-16
CWM-2018-005388-001 OLO 3574737 Cornelis Douwesterrein kavel 2C CWM Commissie III B 2018-05-16
CWM-2018-005389-001 OLO 3612195 Druivenstraat (Stempel 6 de Bongerd) CWM Commissie III B 2018-05-16
WABO-2018-002749-003 OLO Basisweg 10 CWM Commissie III B 2018-05-16
DZ-WABO_VO-2018-001603-004 OLO 3466679 Aletta Jacobslaan 7, 1066BP in Amsterdam CWM Commissie III B 2018-05-16
CWM-2017-010961-001 OLO 3061419 Buitenveldertselaan 78-84 CWM Commissie III B 2018-05-16
CWM-2018-004361-001 OLO 3523569 Rokin 69 CWM Commissie I A 2018-05-16
CWM-2018-004361-002 OLO 3523569 Rokin 69 CWM Commissie I A 2018-05-16
CWM-2018-004860-003 OLO 3037779 Nieuwezijds Voorburgwal 120 CWM Commissie I A 2018-05-16
CWM-2018-004367-001 OLO 3462085 Herengracht 14 CWM Commissie I A 2018-05-16
CWM-2018-004367-002 OLO 3462085 Herengracht 14 CWM Commissie I A 2018-05-16
CWM-2018-004369-001 OLO 3424761 Korte Prinsengracht 18 CWM Commissie I A 2018-05-16
CWM-2018-004497-001 OLO 3491463 Prins Hendrikkade 124 CWM Commissie I A 2018-05-16
CWM-2018-004497-002 OLO 3491463 Prins Hendrikkade 124 CWM Commissie I A 2018-05-16
CWM-2018-004579-001 OLO 3590123 Weteringstraat 28 CWM Commissie I A 2018-05-16
CWM-2018-004579-002 OLO 3590123 Weteringstraat 28 CWM Commissie I A 2018-05-16
CWM-2018-004582-001 OLO 3380037 Bloemstraat 15-19 CWM Commissie I A 2018-05-16
CWM-2018-004582-002 OLO 3380037 Bloemstraat 15-19 CWM Commissie I A 2018-05-16
CWM-2018-004586-001 OLO 3599957 Waterlooplein 29 CWM Commissie I A 2018-05-16
CWM-2018-004586-002 OLO 3599957 Waterlooplein 29 CWM Commissie I A 2018-05-16
CWM-2018-004666-001 OLO 3615983 Plantage Middenlaan 51 CWM Commissie I A 2018-05-16
1 1.293 1.294 1.295 1.296 1.297 3.891

U kunt de welstands- en monumentenadviezen van alle aanvragen voor Amsterdam sinds 2004 en voor Weesp vanaf 2020 op het betreffende adres terugvinden.

Door een fout in de koppeling met het vergunningensysteem van de gemeente Amsterdam worden nieuwe adviezen van de Commissie Omgevingskwaliteit niet altijd met het juiste adres gepubliceerd. Zoeken op zaak- of OLO nummer levert wel de juiste adviestekst op. Excuses voor het ongemak. Voor spoedgevallen kunt u rechtstreeks contact opnemen met het bureau van de COK.